Nonthaburi, Thailand
Current Conditions -  °F | °C
As of 11:30 AM on Friday 31 Oct 2014 (Local Time) from VTBD Reporting Station
Broken Clouds Broken Clouds  
Wind Chill: 91°   Ceiling: 30000
Heat Index: 102°   Visibility: 6mi
Dew Point: 75°   Wind: 8mph
Humidity: 59%   Direction: 20°NNE
Pressure: 29.83"   Gusts: NA
Location:  13.84°N, 100.52°E
Report Text: VTBD 310430Z 02007KT 340V060 9999 FEW020 BKN300 33/24 Q1010 NOSIG
Loading
Personal Weather Stations






























Interactive Weather Map New forecast layout! Learn more

10-Day Weather Forecast

Advertisements
Track Severe Weather on mobile